createdAt,value
2018-07-14T00:01:15.184Z,97580.40
2018-07-14T00:03:43.726Z,97569.64
2018-07-14T00:06:12.343Z,97582.78
2018-07-14T00:08:40.861Z,97586.13
2018-07-14T00:11:09.469Z,97558.61
2018-07-14T00:13:38.143Z,97554.19
2018-07-14T00:16:07.075Z,97549.36
2018-07-14T00:18:35.633Z,97553.47
2018-07-14T00:21:04.227Z,97543.09
2018-07-14T00:23:32.794Z,97527.34
2018-07-14T00:26:02.337Z,97524.34
2018-07-14T00:28:32.832Z,97517.41
2018-07-14T00:31:01.384Z,97513.94
2018-07-14T00:33:30.617Z,97528.05
2018-07-14T00:35:59.179Z,97519.10
2018-07-14T00:38:28.342Z,97511.50
2018-07-14T00:40:56.862Z,97514.61
2018-07-14T00:43:25.418Z,97512.31
2018-07-14T00:45:53.974Z,97512.16
2018-07-14T00:48:22.494Z,97504.25
2018-07-14T00:50:51.091Z,97488.73
2018-07-14T00:53:19.673Z,97472.27
2018-07-14T00:55:48.318Z,97448.23
2018-07-14T00:58:17.001Z,97431.15
2018-07-14T01:00:45.636Z,97429.66
2018-07-14T01:03:14.233Z,97471.94
2018-07-14T01:05:42.757Z,97428.55
2018-07-14T01:08:11.344Z,97410.73
2018-07-14T01:10:39.926Z,97424.05
2018-07-14T01:13:08.493Z,97433.61
2018-07-14T01:15:37.175Z,97404.55
2018-07-14T01:18:05.834Z,97382.02
2018-07-14T01:20:34.455Z,97369.90
2018-07-14T01:23:03.022Z,97380.19
2018-07-14T01:25:31.581Z,97372.81
2018-07-14T01:28:00.151Z,97361.04
2018-07-14T01:30:28.711Z,97352.22
2018-07-14T01:32:57.328Z,97349.84
2018-07-14T01:35:25.926Z,97331.20
2018-07-14T01:37:54.553Z,97325.22
2018-07-14T01:40:23.089Z,97326.09
2018-07-14T01:42:51.636Z,97322.38
2018-07-14T01:45:20.187Z,97273.91
2018-07-14T01:47:48.734Z,97307.96
2018-07-14T01:50:17.340Z,97288.28
2018-07-14T01:52:45.941Z,97311.91
2018-07-14T01:55:14.530Z,97336.61
2018-07-14T01:57:43.184Z,97347.69
2018-07-14T02:00:11.785Z,97357.09
2018-07-14T02:02:40.351Z,97360.23
2018-07-14T02:05:09.372Z,97357.55
2018-07-14T02:07:38.041Z,97367.06
2018-07-14T02:10:06.924Z,97341.36
2018-07-14T02:12:35.546Z,97325.23
2018-07-14T02:15:04.417Z,97290.21
2018-07-14T02:17:33.078Z,97282.16
2018-07-14T02:20:01.621Z,97263.58
2018-07-14T02:22:30.193Z,97261.31
2018-07-14T02:24:58.754Z,97259.97
2018-07-14T02:27:27.375Z,97263.84
2018-07-14T02:29:55.993Z,97279.63
2018-07-14T02:32:24.605Z,97282.96
2018-07-14T02:34:53.196Z,97286.92
2018-07-14T02:37:21.733Z,97283.66
2018-07-14T02:39:50.387Z,97296.77
2018-07-14T02:42:19.040Z,97297.09
2018-07-14T02:44:47.631Z,97314.57
2018-07-14T02:47:16.280Z,97335.84
2018-07-14T02:49:44.873Z,97340.98
2018-07-14T02:52:13.462Z,97329.68
2018-07-14T02:54:42.098Z,97325.63
2018-07-14T02:57:10.761Z,97322.71
2018-07-14T02:59:39.955Z,97307.06
2018-07-14T03:02:08.549Z,97300.97
2018-07-14T03:04:37.108Z,97293.53
2018-07-14T03:07:05.714Z,97284.86
2018-07-14T03:09:34.271Z,97278.38
2018-07-14T03:12:02.925Z,97268.56
2018-07-14T03:14:31.449Z,97247.52
2018-07-14T03:17:00.050Z,97259.41
2018-07-14T03:19:28.769Z,97266.11
2018-07-14T03:21:57.354Z,97271.02
2018-07-14T03:24:26.001Z,97265.88
2018-07-14T03:26:54.546Z,97272.84
2018-07-14T03:29:23.133Z,97268.09
2018-07-14T03:31:51.636Z,97285.41
2018-07-14T03:34:20.230Z,97298.68
2018-07-14T03:36:49.761Z,97282.56
2018-07-14T03:39:18.366Z,97293.53
2018-07-14T03:41:47.016Z,97295.03
2018-07-14T03:44:15.560Z,97299.06
2018-07-14T03:46:44.118Z,97358.63
2018-07-14T03:49:12.682Z,97417.37
2018-07-14T03:51:41.212Z,97471.80
2018-07-14T03:54:09.825Z,97513.38
2018-07-14T03:56:38.448Z,97545.11
2018-07-14T03:59:07.395Z,97570.36
2018-07-14T04:01:35.997Z,97590.73
2018-07-14T04:04:04.534Z,97613.08
2018-07-14T04:06:33.200Z,97564.94
2018-07-14T04:09:01.676Z,97562.69
2018-07-14T04:11:30.213Z,97576.46
2018-07-14T04:13:59.102Z,97561.94
2018-07-14T04:16:27.722Z,97544.34
2018-07-14T04:18:56.308Z,97527.02
2018-07-14T04:21:24.857Z,97511.11
2018-07-14T04:23:53.391Z,97517.81
2018-07-14T04:26:21.986Z,97509.52
2018-07-14T04:28:50.787Z,97555.04
2018-07-14T04:31:19.337Z,97536.78
2018-07-14T04:33:47.920Z,97543.17
2018-07-14T04:36:16.495Z,97530.90
2018-07-14T04:38:45.047Z,97560.98
2018-07-14T04:41:13.570Z,97631.98
2018-07-14T04:43:42.116Z,97646.75
2018-07-14T04:46:10.666Z,97647.64
2018-07-14T04:48:39.211Z,97656.89
2018-07-14T04:51:07.744Z,97659.47
2018-07-14T04:53:36.336Z,97665.92
2018-07-14T04:56:05.033Z,97667.49
2018-07-14T04:58:33.553Z,97669.11
2018-07-14T05:01:02.109Z,97667.80
2018-07-14T05:05:58.144Z,97671.07
2018-07-14T05:08:26.715Z,97667.88
2018-07-14T05:10:55.291Z,97669.44
2018-07-14T05:13:23.836Z,97674.39
2018-07-14T05:15:52.469Z,97674.91
2018-07-14T05:18:20.996Z,97673.98
2018-07-14T05:20:49.564Z,97673.66
2018-07-14T05:23:18.106Z,97678.92
2018-07-14T05:25:46.670Z,97672.44
2018-07-14T05:28:15.262Z,97679.16
2018-07-14T05:30:43.855Z,97674.91
2018-07-14T05:33:12.413Z,97681.75
2018-07-14T05:35:40.977Z,97683.64
2018-07-14T05:38:09.553Z,97682.91
2018-07-14T05:40:39.060Z,97681.69
2018-07-14T05:43:07.658Z,97680.33
2018-07-14T05:45:36.220Z,97674.35
2018-07-14T05:48:04.826Z,97672.83
2018-07-14T05:50:33.436Z,97679.87
2018-07-14T05:53:02.030Z,97686.11
2018-07-14T05:55:30.573Z,97689.14
2018-07-14T05:57:59.160Z,97693.20
2018-07-14T06:00:27.734Z,97694.71
2018-07-14T06:02:56.258Z,97695.02
2018-07-14T06:05:24.828Z,97698.99
2018-07-14T06:07:53.383Z,97701.48
2018-07-14T06:10:21.942Z,97705.41
2018-07-14T06:12:50.512Z,97710.23
2018-07-14T06:15:19.040Z,97717.03
2018-07-14T06:17:47.586Z,97713.52
2018-07-14T06:20:16.127Z,97708.30
2018-07-14T06:22:44.740Z,97707.16
2018-07-14T06:25:13.263Z,97715.77
2018-07-14T06:27:41.810Z,97719.95
2018-07-14T06:30:10.401Z,97714.67
2018-07-14T06:32:38.933Z,97715.04
2018-07-14T06:35:07.514Z,97706.76
2018-07-14T06:37:36.099Z,97705.45
2018-07-14T06:40:04.686Z,97704.75
2018-07-14T06:42:33.239Z,97706.75
2018-07-14T06:45:01.748Z,97705.91
2018-07-14T06:47:30.324Z,97697.55
2018-07-14T06:49:58.857Z,97701.89
2018-07-14T06:52:27.459Z,97700.54
2018-07-14T06:54:56.103Z,97702.03
2018-07-14T06:57:30.883Z,97704.20
2018-07-14T06:59:59.473Z,97706.58
2018-07-14T07:02:28.028Z,97711.81
2018-07-14T07:04:56.581Z,97701.63
2018-07-14T07:07:25.162Z,97701.34
2018-07-14T07:09:53.691Z,97691.63
2018-07-14T07:12:22.305Z,97696.69
2018-07-14T07:14:50.807Z,97698.69
2018-07-14T07:17:19.323Z,97694.60
2018-07-14T07:19:47.882Z,97695.85
2018-07-14T07:22:16.416Z,97696.83
2018-07-14T07:24:44.962Z,97696.84
2018-07-14T07:27:13.527Z,97701.65
2018-07-14T07:29:42.048Z,97702.61
2018-07-14T07:32:10.568Z,97703.61
2018-07-14T07:34:39.297Z,97704.09
2018-07-14T07:37:07.877Z,97697.38
2018-07-14T07:39:36.439Z,97701.64
2018-07-14T07:42:04.992Z,97701.96
2018-07-14T07:44:33.568Z,97706.08
2018-07-14T07:47:02.098Z,97708.61
2018-07-14T07:49:30.681Z,97703.52
2018-07-14T07:51:59.198Z,97706.45
2018-07-14T07:54:27.723Z,97699.71
2018-07-14T07:56:56.269Z,97693.81
2018-07-14T07:59:24.818Z,97693.25
2018-07-14T08:01:53.369Z,97685.95
2018-07-14T08:04:21.919Z,97687.34
2018-07-14T08:06:50.463Z,97685.11
2018-07-14T08:09:19.026Z,97678.03
2018-07-14T08:11:47.565Z,97687.64
2018-07-14T08:14:16.119Z,97684.87
2018-07-14T08:16:44.665Z,97685.98
2018-07-14T08:19:13.209Z,97674.37
2018-07-14T08:21:41.774Z,97678.65
2018-07-14T08:24:10.343Z,97676.84
2018-07-14T08:26:38.910Z,97679.20
2018-07-14T08:29:07.449Z,97672.23
2018-07-14T08:31:35.967Z,97677.23
2018-07-14T08:34:04.530Z,97670.03
2018-07-14T08:36:33.067Z,97674.02
2018-07-14T08:39:01.716Z,97680.02
2018-07-14T08:41:30.228Z,97676.63
2018-07-14T08:43:58.756Z,97677.05
2018-07-14T08:46:27.504Z,97690.69
2018-07-14T08:48:56.040Z,97691.44
2018-07-14T08:51:24.605Z,97685.08
2018-07-14T08:53:53.162Z,97683.58
2018-07-14T08:56:21.719Z,97690.67
2018-07-14T08:58:50.250Z,97684.34
2018-07-14T09:01:18.763Z,97686.96
2018-07-14T09:03:47.350Z,97685.92
2018-07-14T09:06:15.875Z,97684.48
2018-07-14T09:08:44.409Z,97676.44
2018-07-14T09:11:13.024Z,97673.28
2018-07-14T09:13:41.560Z,97681.05
2018-07-14T09:16:10.107Z,97673.47
2018-07-14T09:18:38.643Z,97674.98
2018-07-14T09:21:07.315Z,97677.81
2018-07-14T09:23:35.865Z,97677.20
2018-07-14T09:26:04.449Z,97671.56
2018-07-14T09:28:32.996Z,97669.80
2018-07-14T09:31:01.538Z,97669.27
2018-07-14T09:33:30.101Z,97667.87
2018-07-14T09:35:58.661Z,97669.75
2018-07-14T09:38:27.174Z,97668.89
2018-07-14T09:40:56.068Z,97661.61
2018-07-14T09:43:24.612Z,97666.23
2018-07-14T09:45:53.123Z,97667.41
2018-07-14T09:48:21.692Z,97666.18
2018-07-14T09:50:50.250Z,97660.77
2018-07-14T09:53:18.828Z,97660.92
2018-07-14T09:55:48.035Z,97656.75
2018-07-14T09:58:16.590Z,97650.55
2018-07-14T10:00:50.437Z,97649.03
2018-07-14T10:03:19.009Z,97649.16
2018-07-14T10:05:47.597Z,97643.35
2018-07-14T10:08:16.282Z,97642.97
2018-07-14T10:10:44.842Z,97639.33
2018-07-14T10:13:13.504Z,97643.26
2018-07-14T10:15:41.991Z,97643.86
2018-07-14T10:18:10.588Z,97643.64
2018-07-14T10:20:39.125Z,97640.16
2018-07-14T10:23:07.659Z,97640.33
2018-07-14T10:25:36.282Z,97644.77
2018-07-14T10:28:04.751Z,97647.06
2018-07-14T10:30:33.307Z,97643.34
2018-07-14T10:33:01.881Z,97646.53
2018-07-14T10:35:30.414Z,97654.59
2018-07-14T10:37:58.961Z,97654.25
2018-07-14T10:40:28.035Z,97664.95
2018-07-14T10:42:56.581Z,97669.51
2018-07-14T10:45:25.109Z,97671.02
2018-07-14T10:47:53.663Z,97669.84
2018-07-14T10:50:22.289Z,97661.02
2018-07-14T10:52:50.897Z,97670.02
2018-07-14T10:55:19.533Z,97668.56
2018-07-14T10:57:48.083Z,97659.37
2018-07-14T11:00:16.637Z,97660.59
2018-07-14T11:02:45.184Z,97654.78
2018-07-14T11:05:13.690Z,97643.97
2018-07-14T11:07:42.228Z,97639.73
2018-07-14T11:10:10.751Z,97637.60
2018-07-14T11:12:39.310Z,97628.28
2018-07-14T11:15:07.901Z,97627.85
2018-07-14T11:17:36.642Z,97617.07
2018-07-14T11:20:05.274Z,97605.84
2018-07-14T11:22:33.851Z,97596.27
2018-07-14T11:25:02.414Z,97596.84
2018-07-14T11:27:30.962Z,97607.81
2018-07-14T11:29:59.520Z,97618.41
2018-07-14T11:32:28.091Z,97623.99
2018-07-14T11:34:56.775Z,97618.41
2018-07-14T11:37:25.718Z,97621.81
2018-07-14T11:39:54.285Z,97626.83
2018-07-14T11:42:22.876Z,97633.18
2018-07-14T11:44:51.430Z,97633.44
2018-07-14T11:47:19.979Z,97636.05
2018-07-14T11:49:48.526Z,97631.72
2018-07-14T11:52:17.101Z,97637.40
2018-07-14T11:54:45.617Z,97634.41
2018-07-14T11:57:14.186Z,97633.65
2018-07-14T11:59:42.736Z,97631.84
2018-07-14T12:02:11.331Z,97629.19
2018-07-14T12:04:39.945Z,97613.45
2018-07-14T12:07:08.569Z,97613.23
2018-07-14T12:09:37.124Z,97606.23
2018-07-14T12:12:05.670Z,97605.73
2018-07-14T12:14:34.807Z,97590.54
2018-07-14T12:17:03.357Z,97598.64
2018-07-14T12:19:31.890Z,97600.70
2018-07-14T12:22:00.452Z,97596.36
2018-07-14T12:24:29.000Z,97601.22
2018-07-14T12:26:57.554Z,97601.75
2018-07-14T12:29:26.119Z,97591.19
2018-07-14T12:31:54.675Z,97594.36
2018-07-14T12:34:23.703Z,97601.94
2018-07-14T12:36:52.285Z,97597.30
2018-07-14T12:39:20.987Z,97594.63
2018-07-14T12:41:49.537Z,97592.39
2018-07-14T12:44:18.056Z,97589.98
2018-07-14T12:46:46.613Z,97592.97
2018-07-14T12:49:15.186Z,97586.61
2018-07-14T12:51:43.734Z,97585.12
2018-07-14T12:54:12.307Z,97574.48
2018-07-14T12:56:40.837Z,97575.45
2018-07-14T12:59:09.454Z,97574.44
2018-07-14T13:01:38.464Z,97570.55
2018-07-14T13:04:07.058Z,97570.28
2018-07-14T13:06:35.681Z,97574.43
2018-07-14T13:09:05.020Z,97568.56
2018-07-14T13:11:33.588Z,97561.38
2018-07-14T13:14:02.213Z,97561.56
2018-07-14T13:16:30.735Z,97557.88
2018-07-14T13:18:59.314Z,97561.34
2018-07-14T13:21:27.847Z,97557.83
2018-07-14T13:23:56.410Z,97561.34
2018-07-14T13:26:25.021Z,97562.31
2018-07-14T13:28:53.537Z,97559.64
2018-07-14T13:31:22.193Z,97563.06
2018-07-14T13:33:50.802Z,97568.67
2018-07-14T13:36:19.434Z,97560.05
2018-07-14T13:38:51.734Z,97572.87
2018-07-14T13:41:16.537Z,97566.81
2018-07-14T13:43:45.097Z,97556.07
2018-07-14T13:46:13.625Z,97553.38
2018-07-14T13:48:42.173Z,97546.84
2018-07-14T13:51:10.697Z,97543.91
2018-07-14T13:53:39.305Z,97532.02
2018-07-14T13:56:07.902Z,97524.29
2018-07-14T13:58:36.468Z,97527.75
2018-07-14T14:01:05.065Z,97519.54
2018-07-14T14:03:33.599Z,97532.47
2018-07-14T14:06:02.176Z,97536.84
2018-07-14T14:08:30.748Z,97519.47
2018-07-14T14:10:59.289Z,97528.45
2018-07-14T14:13:27.882Z,97524.80
2018-07-14T14:15:56.450Z,97516.37
2018-07-14T14:18:24.980Z,97521.43
2018-07-14T14:20:53.566Z,97512.66
2018-07-14T14:23:22.111Z,97517.30
2018-07-14T14:25:50.666Z,97516.23
2018-07-14T14:28:19.227Z,97519.09
2018-07-14T14:30:47.770Z,97514.61
2018-07-14T14:33:16.388Z,97516.19
2018-07-14T14:35:44.911Z,97512.09
2018-07-14T14:38:13.514Z,97512.06
2018-07-14T14:40:42.203Z,97513.00
2018-07-14T14:43:10.763Z,97510.25
2018-07-14T14:45:39.339Z,97511.36
2018-07-14T14:48:07.901Z,97501.99
2018-07-14T14:50:36.525Z,97498.82
2018-07-14T14:53:05.159Z,97501.02
2018-07-14T14:55:33.718Z,97492.93
2018-07-14T14:58:02.303Z,97494.55
2018-07-14T15:00:30.853Z,97488.87
2018-07-14T15:02:59.425Z,97488.23
2018-07-14T15:05:27.996Z,97487.06
2018-07-14T15:07:56.756Z,97483.70
2018-07-14T15:10:25.358Z,97480.17
2018-07-14T15:12:53.954Z,97474.11
2018-07-14T15:15:22.603Z,97466.20
2018-07-14T15:17:51.168Z,97477.72
2018-07-14T15:20:19.778Z,97468.44
2018-07-14T15:22:48.359Z,97461.53
2018-07-14T15:25:16.908Z,97467.41
2018-07-14T15:27:45.439Z,97465.92
2018-07-14T15:30:13.980Z,97459.97
2018-07-14T15:32:42.533Z,97456.55
2018-07-14T15:35:11.085Z,97452.69
2018-07-14T15:37:39.649Z,97450.09
2018-07-14T15:40:08.202Z,97458.25
2018-07-14T15:42:36.827Z,97458.02
2018-07-14T15:45:05.615Z,97457.97
2018-07-14T15:47:34.184Z,97453.21
2018-07-14T15:50:02.825Z,97448.41
2018-07-14T15:52:31.363Z,97453.13
2018-07-14T15:54:59.981Z,97448.29
2018-07-14T15:57:28.492Z,97448.84
2018-07-14T15:59:57.058Z,97448.72
2018-07-14T16:02:25.620Z,97448.23
2018-07-14T16:04:54.144Z,97445.25
2018-07-14T16:07:22.700Z,97440.14
2018-07-14T16:09:51.224Z,97445.70
2018-07-14T16:12:19.790Z,97443.88
2018-07-14T16:14:48.451Z,97443.40
2018-07-14T16:17:16.970Z,97441.25
2018-07-14T16:19:45.558Z,97444.64
2018-07-14T16:22:14.084Z,97444.74
2018-07-14T16:24:42.630Z,97437.31
2018-07-14T16:27:11.169Z,97439.86
2018-07-14T16:29:39.722Z,97442.05
2018-07-14T16:32:08.349Z,97443.56
2018-07-14T16:34:36.898Z,97447.04
2018-07-14T16:37:05.744Z,97443.69
2018-07-14T16:39:34.275Z,97446.82
2018-07-14T16:42:02.809Z,97448.88
2018-07-14T16:44:31.371Z,97456.14
2018-07-14T16:46:59.917Z,97454.86
2018-07-14T16:49:28.470Z,97446.36
2018-07-14T16:51:57.052Z,97444.52
2018-07-14T16:54:25.603Z,97438.52
2018-07-14T16:56:54.422Z,97438.41
2018-07-14T16:59:22.991Z,97428.82
2018-07-14T17:01:51.587Z,97426.23
2018-07-14T17:04:20.116Z,97425.92
2018-07-14T17:06:48.685Z,97422.44
2018-07-14T17:09:17.292Z,97422.94
2018-07-14T17:11:45.818Z,97431.11
2018-07-14T17:14:14.428Z,97419.44
2018-07-14T17:16:42.992Z,97423.38
2018-07-14T17:19:11.538Z,97423.80
2018-07-14T17:21:40.111Z,97425.89
2018-07-14T17:24:08.644Z,97425.87
2018-07-14T17:26:37.218Z,97416.02
2018-07-14T17:29:05.754Z,97415.92
2018-07-14T17:31:34.290Z,97411.17
2018-07-14T17:34:02.866Z,97409.50
2018-07-14T17:36:31.409Z,97408.64
2018-07-14T17:38:59.965Z,97411.15
2018-07-14T17:41:28.501Z,97409.91
2018-07-14T17:43:57.042Z,97410.73
2018-07-14T17:46:25.616Z,97410.98
2018-07-14T17:48:54.140Z,97407.00
2018-07-14T17:51:22.739Z,97412.78
2018-07-14T17:53:51.282Z,97411.41
2018-07-14T17:56:19.820Z,97411.40
2018-07-14T17:58:48.449Z,97413.45
2018-07-14T18:01:17.063Z,97407.30
2018-07-14T18:03:45.634Z,97404.61
2018-07-14T18:06:14.167Z,97411.78
2018-07-14T18:08:42.715Z,97407.23
2018-07-14T18:11:11.272Z,97407.16
2018-07-14T18:13:39.800Z,97411.25
2018-07-14T18:16:08.349Z,97407.56
2018-07-14T18:18:36.878Z,97406.47
2018-07-14T18:21:05.465Z,97405.86
2018-07-14T18:23:34.045Z,97404.45
2018-07-14T18:26:02.609Z,97401.73
2018-07-14T18:28:31.243Z,97399.84
2018-07-14T18:30:59.777Z,97406.00
2018-07-14T18:33:28.341Z,97404.98
2018-07-14T18:35:56.909Z,97400.11
2018-07-14T18:38:25.539Z,97402.97
2018-07-14T18:40:54.113Z,97401.55
2018-07-14T18:43:22.651Z,97409.20
2018-07-14T18:45:51.454Z,97403.78
2018-07-14T18:48:19.994Z,97411.33
2018-07-14T18:50:48.550Z,97408.97
2018-07-14T18:53:17.088Z,97411.78
2018-07-14T18:55:45.637Z,97414.28
2018-07-14T18:58:14.190Z,97411.16
2018-07-14T19:00:42.740Z,97405.39
2018-07-14T19:03:11.258Z,97404.42
2018-07-14T19:05:39.824Z,97406.66
2018-07-14T19:08:08.361Z,97407.31
2018-07-14T19:10:36.907Z,97406.23
2018-07-14T19:13:05.465Z,97409.53
2018-07-14T19:15:33.994Z,97409.32
2018-07-14T19:18:02.554Z,97405.19
2018-07-14T19:20:31.111Z,97405.82
2018-07-14T19:22:59.655Z,97408.94
2018-07-14T19:25:28.203Z,97412.11
2018-07-14T19:27:56.739Z,97415.31
2018-07-14T19:30:32.130Z,97420.60
2018-07-14T19:33:00.667Z,97423.05
2018-07-14T19:35:29.214Z,97427.13
2018-07-14T19:37:57.781Z,97438.95
2018-07-14T19:40:26.307Z,97436.67
2018-07-14T19:42:54.886Z,97443.71
2018-07-14T19:45:23.431Z,97446.98
2018-07-14T19:47:52.014Z,97445.19
2018-07-14T19:50:20.559Z,97443.91
2018-07-14T19:52:49.099Z,97441.31
2018-07-14T19:55:17.646Z,97438.66
2018-07-14T19:57:46.219Z,97447.64
2018-07-14T20:00:14.779Z,97451.17
2018-07-14T20:02:43.400Z,97447.03
2018-07-14T20:05:11.924Z,97446.45
2018-07-14T20:07:40.544Z,97447.68
2018-07-14T20:10:09.110Z,97444.63
2018-07-14T20:12:37.641Z,97449.16
2018-07-14T20:15:06.204Z,97447.30
2018-07-14T20:17:34.742Z,97445.05
2018-07-14T20:20:03.300Z,97441.91
2018-07-14T20:22:31.859Z,97449.77
2018-07-14T20:25:00.458Z,97455.86
2018-07-14T20:27:29.019Z,97457.98
2018-07-14T20:29:57.761Z,97459.20
2018-07-14T20:32:26.305Z,97452.81
2018-07-14T20:34:54.908Z,97448.69
2018-07-14T20:37:23.467Z,97450.92
2018-07-14T20:39:52.011Z,97448.16
2018-07-14T20:42:20.618Z,97449.66
2018-07-14T20:44:49.212Z,97454.60
2018-07-14T20:47:17.801Z,97452.23
2018-07-14T20:49:46.374Z,97443.86
2018-07-14T20:52:14.930Z,97450.89
2018-07-14T20:54:43.489Z,97443.08
2018-07-14T20:57:12.086Z,97436.11
2018-07-14T20:59:40.649Z,97446.73
2018-07-14T21:02:09.168Z,97446.30
2018-07-14T21:04:37.724Z,97442.91
2018-07-14T21:07:06.240Z,97444.47
2018-07-14T21:09:34.830Z,97441.94
2018-07-14T21:12:03.369Z,97440.10
2018-07-14T21:14:31.966Z,97435.23
2018-07-14T21:17:00.625Z,97432.69
2018-07-14T21:19:29.205Z,97421.56
2018-07-14T21:21:57.828Z,97434.89
2018-07-14T21:24:26.401Z,97437.14
2018-07-14T21:26:54.974Z,97439.22
2018-07-14T21:29:23.581Z,97439.39
2018-07-14T21:31:52.124Z,97431.02
2018-07-14T21:34:20.870Z,97436.20
2018-07-14T21:36:50.377Z,97437.28
2018-07-14T21:39:18.955Z,97430.86
2018-07-14T21:41:47.640Z,97439.37
2018-07-14T21:44:16.188Z,97446.86
2018-07-14T21:46:44.786Z,97447.83
2018-07-14T21:49:13.332Z,97443.75
2018-07-14T21:51:41.892Z,97432.69
2018-07-14T21:54:10.446Z,97435.81
2018-07-14T21:56:39.050Z,97434.98
2018-07-14T21:59:07.667Z,97438.49
2018-07-14T22:01:41.280Z,97440.66
2018-07-14T22:04:10.032Z,97442.11
2018-07-14T22:06:38.581Z,97443.50
2018-07-14T22:09:07.205Z,97439.37
2018-07-14T22:11:35.820Z,97432.60
2018-07-14T22:14:04.399Z,97432.02
2018-07-14T22:16:33.008Z,97423.36
2018-07-14T22:19:01.601Z,97415.20
2018-07-14T22:21:30.117Z,97405.73
2018-07-14T22:23:58.671Z,97406.87
2018-07-14T22:26:27.221Z,97398.95
2018-07-14T22:28:55.787Z,97397.19
2018-07-14T22:31:24.318Z,97403.47
2018-07-14T22:33:52.876Z,97403.83
2018-07-14T22:36:21.417Z,97405.75
2018-07-14T22:38:49.954Z,97407.26
2018-07-14T22:41:18.538Z,97407.26
2018-07-14T22:43:47.075Z,97383.35
2018-07-14T22:46:15.634Z,97387.39
2018-07-14T22:48:44.240Z,97378.95
2018-07-14T22:51:12.771Z,97368.47
2018-07-14T22:53:41.347Z,97374.62
2018-07-14T22:56:09.891Z,97370.80
2018-07-14T22:58:38.470Z,97381.75
2018-07-14T23:01:07.240Z,97349.63
2018-07-14T23:03:35.779Z,97326.31
2018-07-14T23:06:04.394Z,97325.09
2018-07-14T23:08:32.927Z,97333.27
2018-07-14T23:11:01.551Z,97329.82
2018-07-14T23:13:30.077Z,97332.92
2018-07-14T23:15:58.671Z,97318.55
2018-07-14T23:18:27.205Z,97312.09
2018-07-14T23:20:55.744Z,97311.73
2018-07-14T23:23:24.307Z,97303.34
2018-07-14T23:25:52.866Z,97309.69
2018-07-14T23:28:21.401Z,97310.51
2018-07-14T23:30:49.948Z,97333.45
2018-07-14T23:33:18.492Z,97314.41
2018-07-14T23:35:47.073Z,97284.55
2018-07-14T23:38:15.629Z,97266.52
2018-07-14T23:40:44.157Z,97244.30
2018-07-14T23:43:12.770Z,97248.03
2018-07-14T23:45:41.317Z,97242.97
2018-07-14T23:48:09.898Z,97231.00
2018-07-14T23:50:38.430Z,97227.94
2018-07-14T23:53:06.995Z,97220.65
2018-07-14T23:55:35.594Z,97227.80
2018-07-14T23:58:04.176Z,97196.86
